Stations météo

réclame
Mon MeteoGroup
Mont-Rigi, Belgique (6494): Température de l'air & dewpoint: 19.02.2018 22:00:00 - 25.02.2018 22:00:00 (CET)Mont-Rigi, Belgique (6494): Vitesse du vent & gusts: 19.02.2018 22:00:00 - 25.02.2018 22:00:00 (CET)Mont-Rigi, Belgique (6494): Direction du vent: 19.02.2018 22:00:00 - 25.02.2018 22:00:00 (CET)Mont-Rigi, Belgique (6494): reduced air pressure: 19.02.2018 22:00:00 - 25.02.2018 22:00:00 (CET)Mont-Rigi, Belgique (6494): Ensoleillement: 19.02.2018 22:00:00 - 25.02.2018 22:00:00 (CET)Mont-Rigi, Belgique (6494): Quantités de précipitations: 19.02.2018 22:00:00 - 25.02.2018 22:00:00 (CET)
Date & Time tt [°C] td [°C] ff [km/h] ff [knt] fx [km/h] fx [knt] dd ppp [hPa] sd [min] rr [mm]
25.02.2018 22:00:00 -7,7 -17,5 18 10 - - ENE 1026,8 - -
25.02.2018 21:00:00 - - - - - - - - - -
25.02.2018 20:00:00 -8,1 -15,4 9 5 22 12 NE 1026,8 0 0,0
25.02.2018 19:00:00 - - - - - - - - - -
25.02.2018 18:00:00 -5,7 -18,2 11 6 28 15 NE 1026,1 0 0,0
25.02.2018 17:00:00 -5,1 -18,7 13 7 31 17 ENE 1025,7 0 0,0
25.02.2018 16:00:00 - - - - - - - - - -
25.02.2018 15:00:00 - - - - - - - - - -
25.02.2018 14:00:00 -4,8 -17,3 15 8 30 16 ENE 1026,4 0 0,0
25.02.2018 13:00:00 - - - - - - - - - -
25.02.2018 12:00:00 -6,0 -18,0 17 9 33 18 E 1027,2 0 0,0
25.02.2018 11:00:00 -6,7 -18,3 17 9 36 19 E 1027,2 0 0,0
25.02.2018 10:00:00 -8,0 -16,7 16 9 37 20 E 1027,4 0 0,0
25.02.2018 09:00:00 -9,4 -15,8 15 8 38 21 E 1026,9 0 0,0
25.02.2018 08:00:00 -10,8 -15,0 18 10 35 19 E 1026,9 0 0,0
25.02.2018 07:00:00 -10,6 -14,5 14 8 33 18 E 1026,9 0 0,0
25.02.2018 06:00:00 -10,1 -14,6 14 8 34 18 E 1026,2 0 0,0
25.02.2018 05:00:00 -9,6 -14,3 16 9 40 22 E 1025,7 0 0,0
25.02.2018 04:00:00 -9,1 -14,0 16 9 37 20 E 1025,5 0 0,0
25.02.2018 03:00:00 -8,6 -13,9 14 8 36 19 E 1025,6 0 0,0
25.02.2018 02:00:00 -8,0 -14,0 20 11 44 24 E 1024,9 0 0,0
25.02.2018 01:00:00 - - - - - - - - - -
25.02.2018 00:00:00 -7,0 -13,8 22 12 49 27 E 1024,7 0 0,0
24.02.2018 23:00:00 -6,7 -13,3 18 10 42 23 E 1024,3 0 0,0
24.02.2018 22:00:00 -6,1 -12,0 22 12 45 24 E 1023,9 0 0,0
24.02.2018 21:00:00 -5,8 -11,6 22 12 44 24 E 1023,7 0 0,0
24.02.2018 20:00:00 -5,6 -12,0 21 11 48 26 ENE 1023,2 0 0,0
24.02.2018 19:00:00 -4,6 -11,0 21 12 46 25 E 1022,8 0 0,0
24.02.2018 18:00:00 - - - - - - - - - -
24.02.2018 17:00:00 -1,8 -9,3 16 9 42 23 ENE 1021,4 0 0,0
24.02.2018 16:00:00 -0,8 -10,5 23 12 44 24 ENE 1021,1 0 0,0
24.02.2018 15:00:00 -0,2 -11,3 22 12 44 24 ENE 1020,6 0 0,0
24.02.2018 14:00:00 0,3 -12,3 24 13 54 29 E 1020,4 0 0,0
24.02.2018 13:00:00 -0,4 -13,0 22 12 46 25 E 1020,7 0 0,0
24.02.2018 12:00:00 -1,4 -14,6 19 11 48 26 E 1021,1 0 0,0
24.02.2018 11:00:00 -2,5 -15,6 22 12 41 22 E 1021,1 0 0,0
24.02.2018 10:00:00 -4,4 -16,5 19 11 45 25 E 1021,2 0 0,0
24.02.2018 09:00:00 -6,8 -16,0 19 10 37 20 E 1021,3 0 0,0
24.02.2018 08:00:00 -8,4 -16,3 18 10 37 20 ENE 1021,3 0 0,0
24.02.2018 07:00:00 -8,4 -15,4 18 10 38 20 E 1020,9 0 0,0
24.02.2018 06:00:00 -9,1 -13,3 17 9 33 18 E 1020,9 0 0,0
24.02.2018 05:00:00 -9,0 -13,1 16 9 34 19 E 1020,8 0 0,0
24.02.2018 04:00:00 -8,6 -13,0 16 8 37 20 ENE 1020,5 0 0,0
24.02.2018 03:00:00 - - - - - - - - - -
24.02.2018 02:00:00 -7,5 -13,4 16 9 34 19 E 1020,2 0 0,0
24.02.2018 01:00:00 -7,2 -14,1 14 8 35 19 E 1020,3 0 0,0
24.02.2018 00:00:00 -6,8 -14,9 14 8 37 20 E 1020,1 0 0,0
23.02.2018 23:00:00 -6,2 -15,0 22 12 39 21 ENE 1019,6 0 0,0
23.02.2018 22:00:00 -5,8 -14,7 17 9 36 19 E 1019,9 0 0,0
23.02.2018 21:00:00 -5,1 -13,7 21 11 36 19 E 1019,6 0 0,0
23.02.2018 20:00:00 -4,5 -12,7 18 10 38 21 ENE 1019,3 0 0,0
23.02.2018 19:00:00 -3,9 -12,5 18 10 34 18 ENE 1019,0 0 0,0
23.02.2018 18:00:00 -3,2 -13,1 19 11 36 19 ENE 1018,7 0 0,0
23.02.2018 17:00:00 -2,6 -12,6 19 11 36 19 ENE 1018,5 0 0,0
23.02.2018 16:00:00 -2,4 -12,2 16 8 39 21 ENE 1018,5 0 0,0
23.02.2018 15:00:00 -2,4 -12,8 19 10 36 20 ENE 1018,9 0 0,0
23.02.2018 14:00:00 -3,0 -12,7 19 11 41 22 ENE 1019,2 0 0,0
23.02.2018 13:00:00 -3,5 -12,5 18 10 - - E 1019,7 0 0,0
23.02.2018 12:00:00 -4,4 -12,2 16 9 37 20 E 1020,1 0 0,0
23.02.2018 11:00:00 -5,4 -12,0 18 10 42 23 E 1020,1 0 0,0
23.02.2018 10:00:00 -6,4 -11,9 22 12 49 26 ENE 1020,2 0 0,0
23.02.2018 09:00:00 -7,0 -11,5 21 11 48 26 ENE 1020,4 0 0,0
23.02.2018 08:00:00 -7,9 -10,9 20 11 41 22 ENE 1020,8 0 0,0
23.02.2018 07:00:00 -7,8 -10,8 22 12 41 22 ENE 1020,5 0 0,0
23.02.2018 06:00:00 -7,5 -10,5 19 10 39 21 ENE 1020,6 0 0,0
23.02.2018 05:00:00 -7,4 -10,5 16 9 39 21 ENE 1020,4 0 0,0
23.02.2018 04:00:00 -7,4 -10,5 13 7 30 16 ENE 1020,5 0 0,0
23.02.2018 03:00:00 -7,3 -10,5 14 7 30 16 E 1021,0 0 0,0
23.02.2018 02:00:00 -6,9 -10,3 14 7 27 14 E 1021,1 0 0,0
23.02.2018 01:00:00 -6,5 -10,2 14 8 36 19 E 1021,1 0 0,0
23.02.2018 00:00:00 -5,9 -10,1 17 9 34 19 E 1021,3 0 0,0
22.02.2018 23:00:00 -5,5 -10,2 18 10 32 18 E 1021,3 0 0,0
22.02.2018 22:00:00 -5,1 -9,8 16 8 39 21 E 1021,2 0 0,0
22.02.2018 21:00:00 -4,5 -9,8 19 11 38 20 ENE 1020,9 0 0,0
22.02.2018 20:00:00 - - - - - - - - - -
22.02.2018 19:00:00 -3,7 -9,3 14 8 29 16 NE 1020,5 0 0,0
22.02.2018 18:00:00 -2,6 -9,4 13 7 36 20 NE 1020,2 0 0,0
22.02.2018 17:00:00 -1,6 -9,5 18 10 32 17 NE 1019,8 0 0,0
22.02.2018 16:00:00 -1,7 -9,7 19 11 39 21 NE 1020,0 0 0,0
22.02.2018 15:00:00 -1,7 -8,9 15 8 - - ENE 1020,6 0 0,0
22.02.2018 14:00:00 -2,1 -8,3 17 9 36 20 ENE 1021,1 0 0,0
22.02.2018 13:00:00 -2,0 -8,3 18 10 39 21 ENE 1021,6 0 0,0
22.02.2018 12:00:00 -2,5 -8,1 15 8 33 18 ENE 1021,9 0 0,0
22.02.2018 11:00:00 -3,4 -7,9 17 9 35 19 ENE 1022,3 0 0,0
22.02.2018 10:00:00 -4,8 -7,5 15 8 30 16 ENE 1022,6 0 0,0
22.02.2018 09:00:00 -5,9 -7,8 16 9 34 18 ENE 1022,8 0 0,0
22.02.2018 08:00:00 -6,7 -8,3 15 8 29 16 ENE 1022,7 0 0,0
22.02.2018 07:00:00 -6,7 -8,3 16 9 29 16 E 1022,4 0 0,0
22.02.2018 06:00:00 -6,8 -8,3 13 7 27 15 E 1022,3 0 0,0
22.02.2018 05:00:00 -6,6 -8,2 11 6 23 12 ENE 1022,2 0 0,0
22.02.2018 04:00:00 -6,4 -8,4 11 6 27 14 ENE 1022,4 0 0,0
22.02.2018 03:00:00 -6,1 -8,2 13 7 24 13 E 1022,6 0 0,0
22.02.2018 02:00:00 - - - - - - - - - -
22.02.2018 01:00:00 -5,2 -7,2 11 6 23 12 ENE 1023,0 0 0,0
22.02.2018 00:00:00 -4,8 -7,1 12 6 25 13 ENE 1023,0 0 0,0
21.02.2018 23:00:00 -4,5 -6,9 13 7 24 13 ENE 1023,1 0 0,0
21.02.2018 22:00:00 -4,2 -7,0 13 7 24 13 NE 1023,1 0 0,0
21.02.2018 21:00:00 -4,0 -7,0 13 7 24 13 NE 1023,2 0 0,0
21.02.2018 20:00:00 -3,6 -7,2 11 6 21 12 NE 1023,1 0 0,0
21.02.2018 19:00:00 -3,3 -7,1 11 6 25 14 NNE 1023,2 0 0,0
21.02.2018 18:00:00 -2,4 -6,8 11 6 24 13 NE 1022,9 0 0,0
21.02.2018 17:00:00 - - - - - - - - - -
21.02.2018 16:00:00 -0,5 -4,9 11 6 23 12 NNE 1022,3 0 0,0
21.02.2018 15:00:00 0,3 -5,0 10 5 21 11 N 1022,4 0 0,0
21.02.2018 14:00:00 - - - - - - - - - -
21.02.2018 13:00:00 -0,2 -5,3 7 4 - - NE 1023,5 - -
21.02.2018 12:00:00 - - - - - - - - - -
21.02.2018 11:00:00 -2,7 -5,2 14 8 29 16 ENE 1023,9 - -
21.02.2018 10:00:00 -4,1 -5,6 14 8 25 14 ENE 1024,3 0 0,0
21.02.2018 09:00:00 -5,3 -6,7 10 5 19 10 NE 1024,6 0 0,0
21.02.2018 08:00:00 -5,6 -7,2 14 8 26 14 ENE 1024,0 0 0,0
21.02.2018 07:00:00 -5,8 -7,2 14 8 22 12 ENE 1023,9 0 0,0
21.02.2018 06:00:00 - - - - - - - - - -
21.02.2018 05:00:00 -6,1 -7,2 8 5 15 8 ENE 1023,4 0 0,0
21.02.2018 04:00:00 -5,9 -7,0 7 4 15 8 ENE 1022,7 0 0,0
21.02.2018 03:00:00 -6,1 -7,3 6 4 16 9 ENE 1023,1 0 0,0
21.02.2018 02:00:00 -6,3 -7,6 5 3 8 4 N 1023,4 0 0,0
21.02.2018 01:00:00 -5,5 -7,1 4 2 12 7 NNE 1022,8 0 0,0
21.02.2018 00:00:00 -4,1 -5,9 8 4 16 8 ENE 1021,7 0 0,0
20.02.2018 23:00:00 -3,6 -5,6 8 4 18 10 NE 1021,2 0 0,0
20.02.2018 22:00:00 -3,1 -5,3 10 5 21 11 NE 1020,4 0 0,0
20.02.2018 21:00:00 - - - - - - - - - -
20.02.2018 20:00:00 -2,4 -4,6 7 4 17 9 NNE 1019,6 0 0,0
20.02.2018 19:00:00 -1,8 -4,1 8 4 17 9 NE 1019,1 0 0,0
20.02.2018 18:00:00 -1,1 -3,7 6 3 18 10 NNE 1018,4 0 0,0
20.02.2018 17:00:00 0,0 -3,5 9 5 18 10 NE 1017,6 0 0,0
20.02.2018 16:00:00 0,7 -4,0 9 5 20 11 NNW 1017,3 0 0,0
20.02.2018 15:00:00 1,0 -4,4 10 5 18 10 WNW 1017,2 0 0,0
20.02.2018 14:00:00 - - - - - - - - - -
20.02.2018 13:00:00 0,6 -6,1 7 4 13 7 ENE 1017,4 0 0,0
20.02.2018 12:00:00 0,1 -4,6 6 3 12 6 NNE 1017,9 0 0,0
20.02.2018 11:00:00 - - - - - - - - - -
20.02.2018 10:00:00 -1,9 -4,8 9 5 16 9 E 1017,7 0 0,0
20.02.2018 09:00:00 - - - - - - - - - -
20.02.2018 08:00:00 -4,0 -5,7 7 4 10 6 ENE 1018,1 0 0,0
20.02.2018 07:00:00 -3,3 -5,3 4 2 9 5 NE 1017,8 0 0,0
20.02.2018 06:00:00 -2,9 -4,9 5 3 9 5 NNE 1017,6 0 0,0
20.02.2018 05:00:00 - - - - - - - - - -
20.02.2018 04:00:00 -2,8 -5,1 4 2 10 5 ENE 1017,4 0 0,0
20.02.2018 03:00:00 -2,2 -4,9 7 4 12 6 ENE 1017,0 0 0,0
20.02.2018 02:00:00 - - - - - - - - - -
20.02.2018 01:00:00 -2,0 -4,9 7 4 11 6 NE 1017,5 0 0,0
20.02.2018 00:00:00 - - - - - - - - - -
19.02.2018 23:00:00 -2,3 -5,0 4 2 9 5 SE 1017,4 0 0,0
19.02.2018 22:00:00 -2,9 -5,0 0 0 3 2 - 1018,0 0 0,0

tt = Température de l'air
td = dewpoint
ff = Vitesse du vent
fx = gusts
dd = Direction du vent
ppp = reduced air pressure
sd = Ensoleillement
rr = Quantités de précipitations

stations d'obs. à proximité